sensor_id;sensor_type;location;lat;lon;timestamp;temperature;humidity
26212;DHT22;13951;49.516;6.094;2023-05-23T00:01:56;16.50;99.90
26212;DHT22;13951;49.516;6.094;2023-05-23T00:04:30;16.50;99.90
26212;DHT22;13951;49.516;6.094;2023-05-23T00:07:04;16.50;99.90
26212;DHT22;13951;49.516;6.094;2023-05-23T00:09:37;16.40;99.90
26212;DHT22;13951;49.516;6.094;2023-05-23T00:12:10;16.40;99.90
26212;DHT22;13951;49.516;6.094;2023-05-23T00:14:44;16.40;99.90
26212;DHT22;13951;49.516;6.094;2023-05-23T00:17:17;16.40;99.90
26212;DHT22;13951;49.516;6.094;2023-05-23T00:19:50;16.40;99.90
26212;DHT22;13951;49.516;6.094;2023-05-23T00:22:23;16.40;99.90
26212;DHT22;13951;49.516;6.094;2023-05-23T00:24:56;16.30;99.90
26212;DHT22;13951;49.516;6.094;2023-05-23T00:27:29;16.30;99.90
26212;DHT22;13951;49.516;6.094;2023-05-23T00:30:02;16.40;99.90
26212;DHT22;13951;49.516;6.094;2023-05-23T00:32:36;16.30;99.90
26212;DHT22;13951;49.516;6.094;2023-05-23T00:35:09;16.30;99.90
26212;DHT22;13951;49.516;6.094;2023-05-23T00:37:42;16.30;99.90
26212;DHT22;13951;49.516;6.094;2023-05-23T00:40:17;16.20;99.90
26212;DHT22;13951;49.516;6.094;2023-05-23T00:42:50;16.20;99.90
26212;DHT22;13951;49.516;6.094;2023-05-23T00:45:23;16.20;99.90
26212;DHT22;13951;49.516;6.094;2023-05-23T00:47:56;16.20;99.90
26212;DHT22;13951;49.516;6.094;2023-05-23T00:50:32;16.20;99.90
26212;DHT22;13951;49.516;6.094;2023-05-23T00:53:05;16.20;99.90
26212;DHT22;13951;49.516;6.094;2023-05-23T00:55:38;16.20;99.90
26212;DHT22;13951;49.516;6.094;2023-05-23T00:58:12;16.30;99.90
26212;DHT22;13951;49.516;6.094;2023-05-23T01:00:47;16.30;99.90
26212;DHT22;13951;49.516;6.094;2023-05-23T01:03:22;16.20;99.90
26212;DHT22;13951;49.516;6.094;2023-05-23T01:05:55;16.20;99.90
26212;DHT22;13951;49.516;6.094;2023-05-23T01:08:28;16.10;99.90
26212;DHT22;13951;49.516;6.094;2023-05-23T01:11:14;16.10;99.90
26212;DHT22;13951;49.516;6.094;2023-05-23T01:14:04;16.00;99.90
26212;DHT22;13951;49.516;6.094;2023-05-23T01:16:52;16.00;99.90
26212;DHT22;13951;49.516;6.094;2023-05-23T01:25:28;16.00;99.90
26212;DHT22;13951;49.516;6.094;2023-05-23T01:28:06;16.00;99.90
26212;DHT22;13951;49.516;6.094;2023-05-23T01:30:42;15.90;99.90
26212;DHT22;13951;49.516;6.094;2023-05-23T01:33:19;15.90;99.90
26212;DHT22;13951;49.516;6.094;2023-05-23T01:35:53;15.90;99.90
26212;DHT22;13951;49.516;6.094;2023-05-23T01:38:28;15.90;99.90
26212;DHT22;13951;49.516;6.094;2023-05-23T01:41:01;15.90;99.90
26212;DHT22;13951;49.516;6.094;2023-05-23T01:43:36;15.90;99.90
26212;DHT22;13951;49.516;6.094;2023-05-23T01:46:09;15.90;99.90
26212;DHT22;13951;49.516;6.094;2023-05-23T01:48:44;15.90;99.90
26212;DHT22;13951;49.516;6.094;2023-05-23T01:51:18;15.90;99.90
26212;DHT22;13951;49.516;6.094;2023-05-23T01:53:51;15.90;99.90
26212;DHT22;13951;49.516;6.094;2023-05-23T01:56:26;15.90;99.90
26212;DHT22;13951;49.516;6.094;2023-05-23T01:58:59;15.80;99.90
26212;DHT22;13951;49.516;6.094;2023-05-23T02:01:33;15.70;99.90
26212;DHT22;13951;49.516;6.094;2023-05-23T02:04:07;15.80;99.90
26212;DHT22;13951;49.516;6.094;2023-05-23T02:06:40;15.80;99.90
26212;DHT22;13951;49.516;6.094;2023-05-23T02:09:17;15.70;99.90
26212;DHT22;13951;49.516;6.094;2023-05-23T02:11:50;15.70;99.90
26212;DHT22;13951;49.516;6.094;2023-05-23T02:14:23;15.70;99.90
26212;DHT22;13951;49.516;6.094;2023-05-23T02:16:58;15.70;99.90
26212;DHT22;13951;49.516;6.094;2023-05-23T02:19:32;15.60;99.90
26212;DHT22;13951;49.516;6.094;2023-05-23T02:22:05;15.70;99.90
26212;DHT22;13951;49.516;6.094;2023-05-23T02:24:38;15.60;99.90
26212;DHT22;13951;49.516;6.094;2023-05-23T02:27:11;15.60;99.90
26212;DHT22;13951;49.516;6.094;2023-05-23T02:29:44;15.50;99.90
26212;DHT22;13951;49.516;6.094;2023-05-23T02:32:17;15.50;99.90
26212;DHT22;13951;49.516;6.094;2023-05-23T02:34:50;15.50;99.90
26212;DHT22;13951;49.516;6.094;2023-05-23T02:37:23;15.50;99.90
26212;DHT22;13951;49.516;6.094;2023-05-23T02:39:56;15.50;99.90
26212;DHT22;13951;49.516;6.094;2023-05-23T02:42:30;15.50;99.90
26212;DHT22;13951;49.516;6.094;2023-05-23T02:45:03;15.50;99.90
26212;DHT22;13951;49.516;6.094;2023-05-23T02:47:36;15.50;99.90
26212;DHT22;13951;49.516;6.094;2023-05-23T02:50:09;15.50;99.90
26212;DHT22;13951;49.516;6.094;2023-05-23T02:52:42;15.50;99.90
26212;DHT22;13951;49.516;6.094;2023-05-23T02:55:16;15.50;99.90
26212;DHT22;13951;49.516;6.094;2023-05-23T02:57:52;15.50;99.90
26212;DHT22;13951;49.516;6.094;2023-05-23T03:00:26;15.60;99.90
26212;DHT22;13951;49.516;6.094;2023-05-23T03:03:01;15.60;99.90
26212;DHT22;13951;49.516;6.094;2023-05-23T03:05:34;15.60;99.90
26212;DHT22;13951;49.516;6.094;2023-05-23T03:08:08;15.60;99.90
26212;DHT22;13951;49.516;6.094;2023-05-23T03:10:41;15.60;99.90
26212;DHT22;13951;49.516;6.094;2023-05-23T03:13:16;15.50;99.90
26212;DHT22;13951;49.516;6.094;2023-05-23T03:15:49;15.40;99.90
26212;DHT22;13951;49.516;6.094;2023-05-23T03:18:22;15.40;99.90
26212;DHT22;13951;49.516;6.094;2023-05-23T03:20:57;15.40;99.90
26212;DHT22;13951;49.516;6.094;2023-05-23T03:23:30;15.40;99.90
26212;DHT22;13951;49.516;6.094;2023-05-23T03:26:03;15.30;99.90
26212;DHT22;13951;49.516;6.094;2023-05-23T03:28:38;15.40;99.90
26212;DHT22;13951;49.516;6.094;2023-05-23T03:31:10;15.40;99.90
26212;DHT22;13951;49.516;6.094;2023-05-23T03:33:43;15.40;99.90
26212;DHT22;13951;49.516;6.094;2023-05-23T03:36:16;15.40;99.90
26212;DHT22;13951;49.516;6.094;2023-05-23T03:38:51;15.40;99.90
26212;DHT22;13951;49.516;6.094;2023-05-23T03:41:25;15.40;99.90
26212;DHT22;13951;49.516;6.094;2023-05-23T03:43:59;15.20;99.90
26212;DHT22;13951;49.516;6.094;2023-05-23T03:46:32;15.20;99.90
26212;DHT22;13951;49.516;6.094;2023-05-23T03:49:07;15.10;99.90
26212;DHT22;13951;49.516;6.094;2023-05-23T03:51:40;15.10;99.90
26212;DHT22;13951;49.516;6.094;2023-05-23T03:54:13;15.10;99.90
26212;DHT22;13951;49.516;6.094;2023-05-23T03:56:46;15.10;99.90
26212;DHT22;13951;49.516;6.094;2023-05-23T03:59:20;15.00;99.90
26212;DHT22;13951;49.516;6.094;2023-05-23T04:01:54;15.10;99.90
26212;DHT22;13951;49.516;6.094;2023-05-23T04:04:30;15.00;99.90
26212;DHT22;13951;49.516;6.094;2023-05-23T04:07:04;15.00;99.90
26212;DHT22;13951;49.516;6.094;2023-05-23T04:09:37;14.90;99.90
26212;DHT22;13951;49.516;6.094;2023-05-23T04:12:13;15.00;99.90
26212;DHT22;13951;49.516;6.094;2023-05-23T04:14:46;15.00;99.90
26212;DHT22;13951;49.516;6.094;2023-05-23T04:17:20;15.00;99.90
26212;DHT22;13951;49.516;6.094;2023-05-23T04:19:53;15.00;99.90
26212;DHT22;13951;49.516;6.094;2023-05-23T04:22:26;15.20;99.90
26212;DHT22;13951;49.516;6.094;2023-05-23T04:24:59;15.20;99.90
26212;DHT22;13951;49.516;6.094;2023-05-23T04:27:36;15.30;99.90
26212;DHT22;13951;49.516;6.094;2023-05-23T04:30:13;15.40;99.90
26212;DHT22;13951;49.516;6.094;2023-05-23T04:32:50;15.50;99.90
26212;DHT22;13951;49.516;6.094;2023-05-23T04:35:25;15.50;99.90
26212;DHT22;13951;49.516;6.094;2023-05-23T04:38:01;15.70;99.90
26212;DHT22;13951;49.516;6.094;2023-05-23T04:40:37;15.70;99.90
26212;DHT22;13951;49.516;6.094;2023-05-23T04:43:38;15.70;99.90
26212;DHT22;13951;49.516;6.094;2023-05-23T04:46:43;15.80;99.90
26212;DHT22;13951;49.516;6.094;2023-05-23T04:49:31;15.90;99.90
26212;DHT22;13951;49.516;6.094;2023-05-23T04:52:07;15.90;99.90
26212;DHT22;13951;49.516;6.094;2023-05-23T04:54:44;15.90;99.90
26212;DHT22;13951;49.516;6.094;2023-05-23T04:57:19;15.90;99.90
26212;DHT22;13951;49.516;6.094;2023-05-23T04:59:52;15.90;99.90
26212;DHT22;13951;49.516;6.094;2023-05-23T05:02:25;16.00;99.90
26212;DHT22;13951;49.516;6.094;2023-05-23T05:04:59;16.10;99.90
26212;DHT22;13951;49.516;6.094;2023-05-23T05:07:31;16.10;99.90
26212;DHT22;13951;49.516;6.094;2023-05-23T05:10:12;16.20;99.90
26212;DHT22;13951;49.516;6.094;2023-05-23T05:12:49;16.20;99.90
26212;DHT22;13951;49.516;6.094;2023-05-23T05:15:22;16.20;99.90
26212;DHT22;13951;49.516;6.094;2023-05-23T05:17:59;16.20;99.90
26212;DHT22;13951;49.516;6.094;2023-05-23T05:20:34;16.20;99.90
26212;DHT22;13951;49.516;6.094;2023-05-23T05:23:07;16.20;99.90
26212;DHT22;13951;49.516;6.094;2023-05-23T05:25:42;16.20;99.90
26212;DHT22;13951;49.516;6.094;2023-05-23T05:28:15;16.30;99.90
26212;DHT22;13951;49.516;6.094;2023-05-23T05:30:51;16.30;99.90
26212;DHT22;13951;49.516;6.094;2023-05-23T05:33:28;16.30;99.90
26212;DHT22;13951;49.516;6.094;2023-05-23T05:36:08;16.30;99.90
26212;DHT22;13951;49.516;6.094;2023-05-23T05:38:41;16.30;99.90
26212;DHT22;13951;49.516;6.094;2023-05-23T05:41:15;16.40;99.90
26212;DHT22;13951;49.516;6.094;2023-05-23T05:43:52;16.40;99.90
26212;DHT22;13951;49.516;6.094;2023-05-23T05:46:26;16.40;99.90
26212;DHT22;13951;49.516;6.094;2023-05-23T05:49:00;16.50;99.90
26212;DHT22;13951;49.516;6.094;2023-05-23T05:51:34;16.50;99.90
26212;DHT22;13951;49.516;6.094;2023-05-23T05:54:08;16.50;99.90
26212;DHT22;13951;49.516;6.094;2023-05-23T05:56:41;16.50;99.90
26212;DHT22;13951;49.516;6.094;2023-05-23T05:59:14;16.50;99.90
26212;DHT22;13951;49.516;6.094;2023-05-23T06:01:49;16.60;99.90
26212;DHT22;13951;49.516;6.094;2023-05-23T06:04:22;16.60;99.90
26212;DHT22;13951;49.516;6.094;2023-05-23T06:06:56;16.50;99.90
26212;DHT22;13951;49.516;6.094;2023-05-23T06:09:29;16.50;99.90
26212;DHT22;13951;49.516;6.094;2023-05-23T06:12:06;16.50;99.90
26212;DHT22;13951;49.516;6.094;2023-05-23T06:14:39;16.50;99.90
26212;DHT22;13951;49.516;6.094;2023-05-23T06:17:13;16.50;99.90
26212;DHT22;13951;49.516;6.094;2023-05-23T06:19:49;16.50;99.90
26212;DHT22;13951;49.516;6.094;2023-05-23T06:22:22;16.60;99.90
26212;DHT22;13951;49.516;6.094;2023-05-23T06:24:55;16.50;99.90
26212;DHT22;13951;49.516;6.094;2023-05-23T06:27:29;16.40;99.90
26212;DHT22;13951;49.516;6.094;2023-05-23T06:30:03;16.40;99.90
26212;DHT22;13951;49.516;6.094;2023-05-23T06:32:37;16.30;99.90
26212;DHT22;13951;49.516;6.094;2023-05-23T06:35:10;16.40;99.90
26212;DHT22;13951;49.516;6.094;2023-05-23T06:37:43;16.40;99.90
26212;DHT22;13951;49.516;6.094;2023-05-23T06:40:17;16.30;99.90
26212;DHT22;13951;49.516;6.094;2023-05-23T06:42:51;16.30;99.90
26212;DHT22;13951;49.516;6.094;2023-05-23T06:45:49;16.30;99.90
26212;DHT22;13951;49.516;6.094;2023-05-23T06:48:22;16.20;99.90
26212;DHT22;13951;49.516;6.094;2023-05-23T06:50:55;16.20;99.90
26212;DHT22;13951;49.516;6.094;2023-05-23T06:53:29;16.20;99.90
26212;DHT22;13951;49.516;6.094;2023-05-23T06:56:03;16.20;99.90
26212;DHT22;13951;49.516;6.094;2023-05-23T06:58:40;16.20;99.90
26212;DHT22;13951;49.516;6.094;2023-05-23T07:01:17;16.30;99.90
26212;DHT22;13951;49.516;6.094;2023-05-23T07:03:53;16.30;99.90
26212;DHT22;13951;49.516;6.094;2023-05-23T07:06:26;16.30;99.90
26212;DHT22;13951;49.516;6.094;2023-05-23T07:09:00;16.30;99.90
26212;DHT22;13951;49.516;6.094;2023-05-23T07:11:35;16.30;99.90
26212;DHT22;13951;49.516;6.094;2023-05-23T07:14:09;16.30;99.90
26212;DHT22;13951;49.516;6.094;2023-05-23T07:16:46;16.40;99.90
26212;DHT22;13951;49.516;6.094;2023-05-23T07:19:19;16.30;99.90
26212;DHT22;13951;49.516;6.094;2023-05-23T07:21:56;16.30;99.90
26212;DHT22;13951;49.516;6.094;2023-05-23T07:24:29;16.30;99.90
26212;DHT22;13951;49.516;6.094;2023-05-23T07:27:02;16.40;99.90
26212;DHT22;13951;49.516;6.094;2023-05-23T07:29:35;16.30;99.90
26212;DHT22;13951;49.516;6.094;2023-05-23T07:32:08;16.30;99.90
26212;DHT22;13951;49.516;6.094;2023-05-23T07:34:43;16.30;99.90
26212;DHT22;13951;49.516;6.094;2023-05-23T07:37:16;16.30;99.90
26212;DHT22;13951;49.516;6.094;2023-05-23T07:39:50;16.40;99.90
26212;DHT22;13951;49.516;6.094;2023-05-23T07:42:23;16.40;99.90
26212;DHT22;13951;49.516;6.094;2023-05-23T07:44:56;16.30;99.90
26212;DHT22;13951;49.516;6.094;2023-05-23T07:47:30;16.40;99.90
26212;DHT22;13951;49.516;6.094;2023-05-23T07:50:05;16.40;99.90
26212;DHT22;13951;49.516;6.094;2023-05-23T07:52:38;16.40;99.90
26212;DHT22;13951;49.516;6.094;2023-05-23T07:55:12;16.30;99.90
26212;DHT22;13951;49.516;6.094;2023-05-23T07:57:45;16.40;99.90
26212;DHT22;13951;49.516;6.094;2023-05-23T08:00:20;16.40;99.90
26212;DHT22;13951;49.516;6.094;2023-05-23T08:02:58;16.50;99.90
26212;DHT22;13951;49.516;6.094;2023-05-23T08:05:38;16.60;99.90
26212;DHT22;13951;49.516;6.094;2023-05-23T08:08:11;16.80;99.90
26212;DHT22;13951;49.516;6.094;2023-05-23T08:10:44;17.10;99.90
26212;DHT22;13951;49.516;6.094;2023-05-23T08:13:26;17.50;99.90
26212;DHT22;13951;49.516;6.094;2023-05-23T08:16:24;17.80;99.90
26212;DHT22;13951;49.516;6.094;2023-05-23T08:18:59;18.20;99.90
26212;DHT22;13951;49.516;6.094;2023-05-23T08:21:34;18.60;99.90
26212;DHT22;13951;49.516;6.094;2023-05-23T08:24:08;18.90;99.90
26212;DHT22;13951;49.516;6.094;2023-05-23T08:26:41;19.00;99.90
26212;DHT22;13951;49.516;6.094;2023-05-23T08:29:17;18.90;99.90
26212;DHT22;13951;49.516;6.094;2023-05-23T08:31:50;18.80;99.90
26212;DHT22;13951;49.516;6.094;2023-05-23T08:34:24;18.80;99.90
26212;DHT22;13951;49.516;6.094;2023-05-23T08:36:57;18.70;99.90
26212;DHT22;13951;49.516;6.094;2023-05-23T08:39:31;18.60;99.90
26212;DHT22;13951;49.516;6.094;2023-05-23T08:42:22;18.50;99.90
26212;DHT22;13951;49.516;6.094;2023-05-23T08:44:55;18.40;99.90
26212;DHT22;13951;49.516;6.094;2023-05-23T08:47:30;18.30;99.90
26212;DHT22;13951;49.516;6.094;2023-05-23T08:50:10;18.30;99.90
26212;DHT22;13951;49.516;6.094;2023-05-23T08:52:55;18.30;99.90
26212;DHT22;13951;49.516;6.094;2023-05-23T08:55:30;18.30;99.90
26212;DHT22;13951;49.516;6.094;2023-05-23T08:58:05;18.30;99.90
26212;DHT22;13951;49.516;6.094;2023-05-23T09:00:55;18.30;99.90
26212;DHT22;13951;49.516;6.094;2023-05-23T09:03:30;18.40;99.90
26212;DHT22;13951;49.516;6.094;2023-05-23T09:06:20;18.50;99.90
26212;DHT22;13951;49.516;6.094;2023-05-23T09:08:53;18.60;99.90
26212;DHT22;13951;49.516;6.094;2023-05-23T09:11:28;18.50;99.90
26212;DHT22;13951;49.516;6.094;2023-05-23T09:14:03;18.60;99.90
26212;DHT22;13951;49.516;6.094;2023-05-23T09:16:37;18.60;99.90
26212;DHT22;13951;49.516;6.094;2023-05-23T09:19:17;18.70;99.90
26212;DHT22;13951;49.516;6.094;2023-05-23T09:21:56;18.60;99.90
26212;DHT22;13951;49.516;6.094;2023-05-23T09:24:36;18.70;99.90
26212;DHT22;13951;49.516;6.094;2023-05-23T09:27:13;18.80;99.90
26212;DHT22;13951;49.516;6.094;2023-05-23T09:29:47;18.70;99.90
26212;DHT22;13951;49.516;6.094;2023-05-23T09:32:23;18.60;99.90
26212;DHT22;13951;49.516;6.094;2023-05-23T09:37:35;18.40;99.90
26212;DHT22;13951;49.516;6.094;2023-05-23T09:40:11;18.40;99.90
26212;DHT22;13951;49.516;6.094;2023-05-23T09:42:50;18.30;99.90
26212;DHT22;13951;49.516;6.094;2023-05-23T09:45:29;18.20;99.90
26212;DHT22;13951;49.516;6.094;2023-05-23T09:48:11;18.20;99.90
26212;DHT22;13951;49.516;6.094;2023-05-23T09:50:45;18.20;99.90
26212;DHT22;13951;49.516;6.094;2023-05-23T09:53:18;18.20;99.90
26212;DHT22;13951;49.516;6.094;2023-05-23T09:55:53;18.30;99.90
26212;DHT22;13951;49.516;6.094;2023-05-23T09:58:28;18.30;99.90
26212;DHT22;13951;49.516;6.094;2023-05-23T10:01:02;18.40;99.90
26212;DHT22;13951;49.516;6.094;2023-05-23T10:03:48;18.40;99.90
26212;DHT22;13951;49.516;6.094;2023-05-23T10:06:33;18.40;99.90
26212;DHT22;13951;49.516;6.094;2023-05-23T10:09:11;18.50;99.90
26212;DHT22;13951;49.516;6.094;2023-05-23T10:14:34;18.50;99.90
26212;DHT22;13951;49.516;6.094;2023-05-23T10:17:18;18.60;99.90
26212;DHT22;13951;49.516;6.094;2023-05-23T10:20:00;18.70;99.90
26212;DHT22;13951;49.516;6.094;2023-05-23T10:22:36;18.80;99.90
26212;DHT22;13951;49.516;6.094;2023-05-23T10:25:10;18.80;99.90
26212;DHT22;13951;49.516;6.094;2023-05-23T10:27:43;18.90;99.90
26212;DHT22;13951;49.516;6.094;2023-05-23T10:30:16;19.00;99.90
26212;DHT22;13951;49.516;6.094;2023-05-23T10:32:50;19.00;99.90
26212;DHT22;13951;49.516;6.094;2023-05-23T10:35:47;19.20;99.90
26212;DHT22;13951;49.516;6.094;2023-05-23T10:38:37;19.60;99.90
26212;DHT22;13951;49.516;6.094;2023-05-23T10:41:23;19.90;99.90
26212;DHT22;13951;49.516;6.094;2023-05-23T10:44:16;19.90;99.90
26212;DHT22;13951;49.516;6.094;2023-05-23T10:46:56;19.90;99.90
26212;DHT22;13951;49.516;6.094;2023-05-23T10:49:40;19.90;99.90
26212;DHT22;13951;49.516;6.094;2023-05-23T10:52:15;19.90;99.90
26212;DHT22;13951;49.516;6.094;2023-05-23T10:54:51;20.00;99.90
26212;DHT22;13951;49.516;6.094;2023-05-23T10:57:25;20.00;99.90
26212;DHT22;13951;49.516;6.094;2023-05-23T11:00:00;19.90;99.90
26212;DHT22;13951;49.516;6.094;2023-05-23T11:02:34;19.90;99.90
26212;DHT22;13951;49.516;6.094;2023-05-23T11:05:23;19.70;99.90
26212;DHT22;13951;49.516;6.094;2023-05-23T11:08:13;19.60;99.90
26212;DHT22;13951;49.516;6.094;2023-05-23T11:11:06;19.50;99.90
26212;DHT22;13951;49.516;6.094;2023-05-23T11:13:55;19.40;99.90
26212;DHT22;13951;49.516;6.094;2023-05-23T11:16:30;19.40;99.90
26212;DHT22;13951;49.516;6.094;2023-05-23T11:19:20;19.30;99.90
26212;DHT22;13951;49.516;6.094;2023-05-23T11:22:02;19.30;99.90
26212;DHT22;13951;49.516;6.094;2023-05-23T11:24:50;19.30;99.90
26212;DHT22;13951;49.516;6.094;2023-05-23T11:27:30;19.20;99.90
26212;DHT22;13951;49.516;6.094;2023-05-23T11:30:10;19.30;99.90
26212;DHT22;13951;49.516;6.094;2023-05-23T11:32:50;19.20;99.90
26212;DHT22;13951;49.516;6.094;2023-05-23T11:35:25;19.10;99.90
26212;DHT22;13951;49.516;6.094;2023-05-23T11:37:58;19.00;99.90
26212;DHT22;13951;49.516;6.094;2023-05-23T11:40:35;18.90;99.90
26212;DHT22;13951;49.516;6.094;2023-05-23T11:43:10;18.80;99.90
26212;DHT22;13951;49.516;6.094;2023-05-23T11:45:43;18.70;99.90
26212;DHT22;13951;49.516;6.094;2023-05-23T11:48:18;18.70;99.90
26212;DHT22;13951;49.516;6.094;2023-05-23T11:50:52;18.80;99.90
26212;DHT22;13951;49.516;6.094;2023-05-23T11:53:27;18.70;99.90
26212;DHT22;13951;49.516;6.094;2023-05-23T11:56:01;18.70;99.90
26212;DHT22;13951;49.516;6.094;2023-05-23T11:58:36;18.80;99.90
26212;DHT22;13951;49.516;6.094;2023-05-23T12:01:10;18.70;99.90
26212;DHT22;13951;49.516;6.094;2023-05-23T12:03:48;18.60;99.90
26212;DHT22;13951;49.516;6.094;2023-05-23T12:06:23;18.50;99.90
26212;DHT22;13951;49.516;6.094;2023-05-23T12:08:58;18.40;99.90
26212;DHT22;13951;49.516;6.094;2023-05-23T12:11:31;18.40;99.90
26212;DHT22;13951;49.516;6.094;2023-05-23T12:14:05;18.40;99.90
26212;DHT22;13951;49.516;6.094;2023-05-23T12:16:38;18.40;99.90
26212;DHT22;13951;49.516;6.094;2023-05-23T12:19:12;18.40;99.90
26212;DHT22;13951;49.516;6.094;2023-05-23T12:21:47;18.40;99.90
26212;DHT22;13951;49.516;6.094;2023-05-23T12:24:21;18.50;99.90
26212;DHT22;13951;49.516;6.094;2023-05-23T12:26:58;18.60;99.90
26212;DHT22;13951;49.516;6.094;2023-05-23T12:29:35;18.50;99.90
26212;DHT22;13951;49.516;6.094;2023-05-23T12:32:09;18.50;99.90
26212;DHT22;13951;49.516;6.094;2023-05-23T12:34:42;18.50;99.90
26212;DHT22;13951;49.516;6.094;2023-05-23T12:37:15;18.40;99.90
26212;DHT22;13951;49.516;6.094;2023-05-23T12:39:52;18.40;99.90
26212;DHT22;13951;49.516;6.094;2023-05-23T12:42:25;18.50;99.90
26212;DHT22;13951;49.516;6.094;2023-05-23T12:45:00;18.50;99.90
26212;DHT22;13951;49.516;6.094;2023-05-23T12:47:33;18.40;99.90
26212;DHT22;13951;49.516;6.094;2023-05-23T12:50:06;18.40;99.90
26212;DHT22;13951;49.516;6.094;2023-05-23T12:52:40;18.40;99.90
26212;DHT22;13951;49.516;6.094;2023-05-23T12:55:13;18.40;99.90
26212;DHT22;13951;49.516;6.094;2023-05-23T12:57:46;18.50;99.90
26212;DHT22;13951;49.516;6.094;2023-05-23T13:00:20;18.50;99.90
26212;DHT22;13951;49.516;6.094;2023-05-23T13:02:53;18.60;99.90
26212;DHT22;13951;49.516;6.094;2023-05-23T13:05:26;18.60;99.90
26212;DHT22;13951;49.516;6.094;2023-05-23T13:07:59;18.70;99.90
26212;DHT22;13951;49.516;6.094;2023-05-23T13:10:32;18.80;99.90
26212;DHT22;13951;49.516;6.094;2023-05-23T13:13:05;18.80;99.90
26212;DHT22;13951;49.516;6.094;2023-05-23T13:15:39;18.90;99.90
26212;DHT22;13951;49.516;6.094;2023-05-23T13:18:12;18.90;99.90
26212;DHT22;13951;49.516;6.094;2023-05-23T13:20:46;18.80;99.90
26212;DHT22;13951;49.516;6.094;2023-05-23T13:23:19;18.70;99.90
26212;DHT22;13951;49.516;6.094;2023-05-23T13:25:52;18.70;99.90
26212;DHT22;13951;49.516;6.094;2023-05-23T13:28:25;18.60;99.90
26212;DHT22;13951;49.516;6.094;2023-05-23T13:30:58;18.60;99.90
26212;DHT22;13951;49.516;6.094;2023-05-23T13:33:32;18.60;99.90
26212;DHT22;13951;49.516;6.094;2023-05-23T13:36:05;18.50;99.90
26212;DHT22;13951;49.516;6.094;2023-05-23T13:38:38;18.60;99.90
26212;DHT22;13951;49.516;6.094;2023-05-23T13:41:12;18.50;99.90
26212;DHT22;13951;49.516;6.094;2023-05-23T13:43:45;18.40;99.90
26212;DHT22;13951;49.516;6.094;2023-05-23T13:46:19;18.40;99.90
26212;DHT22;13951;49.516;6.094;2023-05-23T13:48:52;18.40;99.90
26212;DHT22;13951;49.516;6.094;2023-05-23T13:51:27;18.50;99.90
26212;DHT22;13951;49.516;6.094;2023-05-23T13:54:00;18.50;99.90
26212;DHT22;13951;49.516;6.094;2023-05-23T13:56:34;18.50;99.90
26212;DHT22;13951;49.516;6.094;2023-05-23T13:59:07;18.50;99.90
26212;DHT22;13951;49.516;6.094;2023-05-23T14:01:40;18.50;99.90
26212;DHT22;13951;49.516;6.094;2023-05-23T14:04:13;18.40;99.90
26212;DHT22;13951;49.516;6.094;2023-05-23T14:06:46;18.30;99.90
26212;DHT22;13951;49.516;6.094;2023-05-23T14:09:19;18.30;99.90
26212;DHT22;13951;49.516;6.094;2023-05-23T14:11:55;18.30;99.90
26212;DHT22;13951;49.516;6.094;2023-05-23T14:14:28;18.20;99.90
26212;DHT22;13951;49.516;6.094;2023-05-23T14:17:00;18.20;99.90
26212;DHT22;13951;49.516;6.094;2023-05-23T14:19:33;18.30;99.90
26212;DHT22;13951;49.516;6.094;2023-05-23T14:22:06;18.30;99.90
26212;DHT22;13951;49.516;6.094;2023-05-23T14:24:39;18.30;99.90
26212;DHT22;13951;49.516;6.094;2023-05-23T14:27:12;18.30;99.90
26212;DHT22;13951;49.516;6.094;2023-05-23T14:29:46;18.30;99.90
26212;DHT22;13951;49.516;6.094;2023-05-23T14:32:21;18.30;99.90
26212;DHT22;13951;49.516;6.094;2023-05-23T14:34:53;18.30;99.90
26212;DHT22;13951;49.516;6.094;2023-05-23T14:37:27;18.40;99.90
26212;DHT22;13951;49.516;6.094;2023-05-23T14:40:00;18.40;99.90
26212;DHT22;13951;49.516;6.094;2023-05-23T14:42:33;18.40;99.90
26212;DHT22;13951;49.516;6.094;2023-05-23T14:45:06;18.50;99.90
26212;DHT22;13951;49.516;6.094;2023-05-23T14:47:39;18.50;99.90
26212;DHT22;13951;49.516;6.094;2023-05-23T14:50:12;18.60;99.90
26212;DHT22;13951;49.516;6.094;2023-05-23T14:52:45;18.60;99.90
26212;DHT22;13951;49.516;6.094;2023-05-23T14:55:18;18.60;99.90
26212;DHT22;13951;49.516;6.094;2023-05-23T14:57:51;18.60;99.90
26212;DHT22;13951;49.516;6.094;2023-05-23T15:00:24;18.50;99.90
26212;DHT22;13951;49.516;6.094;2023-05-23T15:02:57;18.50;99.90
26212;DHT22;13951;49.516;6.094;2023-05-23T15:05:30;18.40;99.90
26212;DHT22;13951;49.516;6.094;2023-05-23T15:08:03;18.40;99.90
26212;DHT22;13951;49.516;6.094;2023-05-23T15:10:36;18.50;99.90
26212;DHT22;13951;49.516;6.094;2023-05-23T15:13:10;18.50;99.90
26212;DHT22;13951;49.516;6.094;2023-05-23T15:15:43;18.50;99.90
26212;DHT22;13951;49.516;6.094;2023-05-23T15:18:16;18.50;99.90
26212;DHT22;13951;49.516;6.094;2023-05-23T15:21:07;18.40;99.90
26212;DHT22;13951;49.516;6.094;2023-05-23T15:23:40;18.30;99.90
26212;DHT22;13951;49.516;6.094;2023-05-23T15:26:13;18.20;99.90
26212;DHT22;13951;49.516;6.094;2023-05-23T15:28:46;18.20;99.90
26212;DHT22;13951;49.516;6.094;2023-05-23T15:31:19;18.20;99.90
26212;DHT22;13951;49.516;6.094;2023-05-23T15:33:52;18.20;99.90
26212;DHT22;13951;49.516;6.094;2023-05-23T15:36:25;18.20;99.90
26212;DHT22;13951;49.516;6.094;2023-05-23T15:38:58;18.20;99.90
26212;DHT22;13951;49.516;6.094;2023-05-23T15:41:31;18.20;99.90
26212;DHT22;13951;49.516;6.094;2023-05-23T15:44:04;18.30;99.90
26212;DHT22;13951;49.516;6.094;2023-05-23T15:46:37;18.30;99.90
26212;DHT22;13951;49.516;6.094;2023-05-23T15:49:10;18.20;99.90
26212;DHT22;13951;49.516;6.094;2023-05-23T15:51:57;18.20;99.90
26212;DHT22;13951;49.516;6.094;2023-05-23T15:54:30;18.20;99.90
26212;DHT22;13951;49.516;6.094;2023-05-23T15:57:03;18.20;99.90
26212;DHT22;13951;49.516;6.094;2023-05-23T15:59:37;18.10;99.90
26212;DHT22;13951;49.516;6.094;2023-05-23T16:02:10;18.10;99.90
26212;DHT22;13951;49.516;6.094;2023-05-23T16:04:44;18.00;99.90
26212;DHT22;13951;49.516;6.094;2023-05-23T16:07:16;18.00;99.90
26212;DHT22;13951;49.516;6.094;2023-05-23T16:09:50;18.00;99.90
26212;DHT22;13951;49.516;6.094;2023-05-23T16:12:23;18.00;99.90
26212;DHT22;13951;49.516;6.094;2023-05-23T16:14:56;18.00;99.90
26212;DHT22;13951;49.516;6.094;2023-05-23T16:17:29;18.00;99.90
26212;DHT22;13951;49.516;6.094;2023-05-23T16:20:02;18.00;99.90
26212;DHT22;13951;49.516;6.094;2023-05-23T16:22:36;17.90;99.90
26212;DHT22;13951;49.516;6.094;2023-05-23T16:25:09;17.90;99.90
26212;DHT22;13951;49.516;6.094;2023-05-23T16:27:43;17.80;99.90
26212;DHT22;13951;49.516;6.094;2023-05-23T16:30:16;17.80;99.90
26212;DHT22;13951;49.516;6.094;2023-05-23T16:32:50;17.80;99.90